createdAt,value
2023-02-12T00:00:34.233Z,1.00
2023-02-12T00:03:20.801Z,1.05
2023-02-12T00:06:07.550Z,0.90
2023-02-12T00:08:55.668Z,1.27
2023-02-12T00:11:42.763Z,0.95
2023-02-12T00:14:29.212Z,0.65
2023-02-12T00:17:15.993Z,0.65
2023-02-12T00:20:02.317Z,0.93
2023-02-12T00:22:48.567Z,0.90
2023-02-12T00:25:35.697Z,0.75
2023-02-12T00:28:22.530Z,0.98
2023-02-12T00:31:16.341Z,0.88
2023-02-12T00:34:02.831Z,1.63
2023-02-12T00:36:49.447Z,0.90
2023-02-12T00:39:38.137Z,1.25
2023-02-12T00:42:24.462Z,1.10
2023-02-12T00:45:11.002Z,0.80
2023-02-12T00:47:57.763Z,1.10
2023-02-12T00:50:47.809Z,0.80
2023-02-12T00:53:34.702Z,0.65
2023-02-12T00:56:20.925Z,1.00
2023-02-12T00:59:08.743Z,0.85
2023-02-12T01:01:56.488Z,0.93
2023-02-12T01:04:43.516Z,1.10
2023-02-12T01:07:29.621Z,0.75
2023-02-12T01:10:16.085Z,0.70
2023-02-12T01:13:02.551Z,0.63
2023-02-12T01:15:50.378Z,0.80
2023-02-12T01:18:38.324Z,1.13
2023-02-12T01:21:28.387Z,0.77
2023-02-12T01:24:15.445Z,0.65
2023-02-12T01:27:01.861Z,0.80
2023-02-12T01:29:48.320Z,0.63
2023-02-12T01:32:36.176Z,0.80
2023-02-12T01:35:22.950Z,0.88
2023-02-12T01:38:09.401Z,0.93
2023-02-12T01:41:02.546Z,0.70
2023-02-12T01:44:08.093Z,0.80
2023-02-12T01:47:01.399Z,1.20
2023-02-12T01:49:49.744Z,0.98
2023-02-12T01:52:37.881Z,1.30
2023-02-12T01:55:25.656Z,0.98
2023-02-12T01:58:12.499Z,1.00
2023-02-12T02:01:01.116Z,0.90
2023-02-12T02:03:49.869Z,0.75
2023-02-12T02:06:40.001Z,0.75
2023-02-12T02:09:27.229Z,1.00
2023-02-12T02:12:33.242Z,0.98
2023-02-12T02:15:20.220Z,0.80
2023-02-12T02:18:17.059Z,0.95
2023-02-12T02:21:11.690Z,1.10
2023-02-12T02:24:17.035Z,0.88
2023-02-12T02:27:16.701Z,1.10
2023-02-12T02:30:06.303Z,0.95
2023-02-12T02:33:03.799Z,0.80
2023-02-12T02:36:03.189Z,0.88
2023-02-12T02:39:18.613Z,1.02
2023-02-12T02:42:05.129Z,1.30
2023-02-12T02:44:56.335Z,0.80
2023-02-12T02:47:45.657Z,0.80
2023-02-12T02:50:33.129Z,0.90
2023-02-12T02:53:32.854Z,0.90
2023-02-12T02:56:21.412Z,0.80
2023-02-12T02:59:11.660Z,1.02
2023-02-12T03:02:14.235Z,0.70
2023-02-12T03:05:03.241Z,0.90
2023-02-12T03:07:55.317Z,0.93
2023-02-12T03:10:51.007Z,0.85
2023-02-12T03:13:47.188Z,0.95
2023-02-12T03:16:35.904Z,1.00
2023-02-12T03:19:24.285Z,1.10
2023-02-12T03:22:13.095Z,1.20
2023-02-12T03:25:10.311Z,1.15
2023-02-12T03:28:08.644Z,1.15
2023-02-12T03:31:00.804Z,1.13
2023-02-12T03:34:11.570Z,0.75
2023-02-12T03:37:02.293Z,1.10
2023-02-12T03:40:01.389Z,1.25
2023-02-12T03:43:03.886Z,1.10
2023-02-12T03:45:57.107Z,1.42
2023-02-12T03:48:53.509Z,1.40
2023-02-12T03:51:41.663Z,1.05
2023-02-12T03:54:28.296Z,0.80
2023-02-12T03:57:20.978Z,0.95
2023-02-12T04:00:09.759Z,1.30
2023-02-12T04:03:02.492Z,0.93
2023-02-12T04:05:49.485Z,1.05
2023-02-12T04:12:03.637Z,1.08
2023-02-12T04:15:10.738Z,1.30
2023-02-12T04:18:07.519Z,1.05
2023-02-12T04:20:54.850Z,0.95
2023-02-12T04:23:56.501Z,1.08
2023-02-12T04:27:01.798Z,1.17
2023-02-12T04:30:00.851Z,1.10
2023-02-12T04:32:56.150Z,0.80
2023-02-12T04:35:45.300Z,1.17
2023-02-12T04:38:50.658Z,1.30
2023-02-12T04:41:36.964Z,1.10
2023-02-12T04:44:26.004Z,1.00
2023-02-12T04:47:13.470Z,1.30
2023-02-12T04:49:59.923Z,1.20
2023-02-12T04:52:46.935Z,1.00
2023-02-12T04:55:33.585Z,1.08
2023-02-12T04:58:20.059Z,1.10
2023-02-12T05:01:06.455Z,1.33
2023-02-12T05:03:53.030Z,1.27
2023-02-12T05:06:40.170Z,1.40
2023-02-12T05:09:27.121Z,1.75
2023-02-12T05:12:13.716Z,1.33
2023-02-12T05:15:00.106Z,1.35
2023-02-12T05:17:47.634Z,1.30
2023-02-12T05:20:34.569Z,1.90
2023-02-12T05:23:21.236Z,1.52
2023-02-12T05:26:09.484Z,1.40
2023-02-12T05:28:56.082Z,1.70
2023-02-12T05:31:42.437Z,1.60
2023-02-12T05:34:29.670Z,1.60
2023-02-12T05:37:16.725Z,1.33
2023-02-12T05:40:04.449Z,1.73
2023-02-12T05:42:51.056Z,1.95
2023-02-12T05:45:38.813Z,1.70
2023-02-12T05:48:24.947Z,2.08
2023-02-12T05:51:12.845Z,2.15
2023-02-12T05:54:00.652Z,1.85
2023-02-12T05:56:48.044Z,2.05
2023-02-12T05:59:34.809Z,1.70
2023-02-12T06:02:21.677Z,2.03
2023-02-12T06:05:08.184Z,2.80
2023-02-12T06:07:54.422Z,2.33
2023-02-12T06:10:40.867Z,2.30
2023-02-12T06:13:27.958Z,2.55
2023-02-12T06:16:19.460Z,2.42
2023-02-12T06:19:07.125Z,2.45
2023-02-12T06:21:57.082Z,2.28
2023-02-12T06:24:43.717Z,2.35
2023-02-12T06:27:30.462Z,2.80
2023-02-12T06:30:17.641Z,2.63
2023-02-12T06:33:03.914Z,2.53
2023-02-12T06:35:51.419Z,2.35
2023-02-12T06:38:38.750Z,2.25
2023-02-12T06:41:25.220Z,2.10
2023-02-12T06:44:12.896Z,2.33
2023-02-12T06:46:59.970Z,2.17
2023-02-12T06:49:46.361Z,3.20
2023-02-12T06:52:32.631Z,2.60
2023-02-12T06:55:19.383Z,2.80
2023-02-12T06:58:05.899Z,3.20
2023-02-12T07:00:52.895Z,2.92
2023-02-12T07:03:40.206Z,2.92
2023-02-12T07:06:28.047Z,2.88
2023-02-12T07:09:15.195Z,3.03
2023-02-12T07:12:01.914Z,2.55
2023-02-12T07:14:48.949Z,2.78
2023-02-12T07:17:35.382Z,2.70
2023-02-12T07:20:21.829Z,2.90
2023-02-12T07:23:08.079Z,2.20
2023-02-12T07:26:01.609Z,2.75
2023-02-12T07:28:48.978Z,2.58
2023-02-12T07:31:35.641Z,2.70
2023-02-12T07:34:22.769Z,2.88
2023-02-12T07:37:09.858Z,2.80
2023-02-12T07:39:56.133Z,2.67
2023-02-12T07:42:42.540Z,2.60
2023-02-12T07:45:29.379Z,3.08
2023-02-12T07:48:15.904Z,2.95
2023-02-12T07:51:07.099Z,2.72
2023-02-12T07:53:53.768Z,2.90
2023-02-12T07:56:41.317Z,3.10
2023-02-12T07:59:29.291Z,3.45
2023-02-12T08:02:15.871Z,3.00
2023-02-12T08:05:03.178Z,2.50
2023-02-12T08:07:50.226Z,2.80
2023-02-12T08:10:36.404Z,2.97
2023-02-12T08:13:22.681Z,2.75
2023-02-12T08:16:10.477Z,2.80
2023-02-12T08:19:04.601Z,2.50
2023-02-12T08:22:03.956Z,2.40
2023-02-12T08:24:50.421Z,2.40
2023-02-12T08:27:37.525Z,2.40
2023-02-12T08:30:24.127Z,2.38
2023-02-12T08:33:10.946Z,1.88
2023-02-12T08:36:09.635Z,2.15
2023-02-12T08:39:01.339Z,1.77
2023-02-12T08:41:50.644Z,1.90
2023-02-12T08:44:38.688Z,2.00
2023-02-12T08:47:25.053Z,2.40
2023-02-12T08:50:12.156Z,2.03
2023-02-12T08:53:24.624Z,3.05
2023-02-12T08:56:14.798Z,2.60
2023-02-12T08:59:01.507Z,2.40
2023-02-12T09:01:50.895Z,3.05
2023-02-12T09:04:37.807Z,2.20
2023-02-12T09:07:24.185Z,2.40
2023-02-12T09:10:11.371Z,2.03
2023-02-12T09:12:58.225Z,2.10
2023-02-12T09:15:46.062Z,1.90
2023-02-12T09:18:32.610Z,2.08
2023-02-12T09:21:19.939Z,1.73
2023-02-12T09:24:06.477Z,1.63
2023-02-12T09:26:52.473Z,1.90
2023-02-12T09:29:39.642Z,2.03
2023-02-12T09:32:26.142Z,1.65
2023-02-12T09:35:12.984Z,1.98
2023-02-12T09:38:05.550Z,2.03
2023-02-12T09:40:55.306Z,1.33
2023-02-12T09:43:45.764Z,2.05
2023-02-12T09:46:39.405Z,1.70
2023-02-12T09:49:28.622Z,1.67
2023-02-12T09:52:17.884Z,1.50
2023-02-12T09:55:04.593Z,1.92
2023-02-12T09:57:54.475Z,1.90
2023-02-12T10:00:40.885Z,1.55
2023-02-12T10:03:28.845Z,1.40
2023-02-12T10:06:19.468Z,1.52
2023-02-12T10:09:12.135Z,1.50
2023-02-12T10:12:26.135Z,1.60
2023-02-12T10:15:19.690Z,1.60
2023-02-12T10:18:12.080Z,1.88
2023-02-12T10:21:14.133Z,1.60
2023-02-12T10:24:00.618Z,1.75
2023-02-12T10:26:54.401Z,1.70
2023-02-12T10:29:43.756Z,1.90
2023-02-12T10:32:35.050Z,1.80
2023-02-12T10:35:22.575Z,1.50
2023-02-12T10:38:15.106Z,1.60
2023-02-12T10:41:03.525Z,1.75
2023-02-12T10:43:49.977Z,1.90
2023-02-12T10:46:36.575Z,1.38
2023-02-12T10:49:23.356Z,1.80
2023-02-12T10:52:13.032Z,1.85
2023-02-12T10:54:59.976Z,2.20
2023-02-12T10:57:46.368Z,1.60
2023-02-12T11:00:36.830Z,1.55
2023-02-12T11:03:25.302Z,1.77
2023-02-12T11:06:17.250Z,1.60
2023-02-12T11:09:05.307Z,1.73
2023-02-12T11:11:52.020Z,1.30
2023-02-12T11:14:38.313Z,1.70
2023-02-12T11:17:31.824Z,1.50
2023-02-12T11:20:18.734Z,1.20
2023-02-12T11:23:22.821Z,1.33
2023-02-12T11:26:21.952Z,1.38
2023-02-12T11:29:27.498Z,1.40
2023-02-12T11:32:20.293Z,1.20
2023-02-12T11:35:07.079Z,1.48
2023-02-12T11:38:00.179Z,1.45
2023-02-12T11:40:48.326Z,1.80
2023-02-12T11:43:41.905Z,2.00
2023-02-12T11:49:24.622Z,2.22
2023-02-12T11:52:26.087Z,2.20
2023-02-12T11:55:23.585Z,2.10
2023-02-12T11:58:22.187Z,2.13
2023-02-12T12:01:47.095Z,2.67
2023-02-12T12:04:36.363Z,1.90
2023-02-12T12:07:34.530Z,1.80
2023-02-12T12:10:34.973Z,1.80
2023-02-12T12:13:26.018Z,1.88
2023-02-12T12:16:33.436Z,1.60
2023-02-12T12:19:47.089Z,1.30
2023-02-12T12:23:20.127Z,1.20
2023-02-12T12:26:31.657Z,1.33
2023-02-12T12:29:21.001Z,1.40
2023-02-12T12:32:07.750Z,1.67
2023-02-12T12:34:55.073Z,1.63
2023-02-12T12:38:05.152Z,1.45
2023-02-12T12:40:51.671Z,1.60
2023-02-12T12:43:56.003Z,1.15
2023-02-12T12:46:42.508Z,1.50
2023-02-12T12:49:30.658Z,1.33
2023-02-12T12:52:35.970Z,1.70
2023-02-12T12:55:27.221Z,1.27
2023-02-12T12:58:23.128Z,1.70
2023-02-12T13:01:18.231Z,1.45
2023-02-12T13:04:24.030Z,1.33
2023-02-12T13:07:29.697Z,1.67
2023-02-12T13:10:34.890Z,1.48
2023-02-12T13:13:33.232Z,1.05
2023-02-12T13:16:26.013Z,1.25
2023-02-12T13:19:18.365Z,1.40
2023-02-12T13:22:14.720Z,1.60
2023-02-12T13:25:09.305Z,1.60
2023-02-12T13:27:56.775Z,1.48
2023-02-12T13:30:46.179Z,1.70
2023-02-12T13:33:42.515Z,1.35
2023-02-12T13:36:28.995Z,1.30
2023-02-12T13:39:33.209Z,1.60
2023-02-12T13:42:26.304Z,1.67
2023-02-12T13:45:21.308Z,1.88
2023-02-12T13:48:14.149Z,1.50
2023-02-12T13:51:01.408Z,1.83
2023-02-12T13:54:02.663Z,1.98
2023-02-12T13:56:57.977Z,2.30
2023-02-12T13:59:54.496Z,2.10
2023-02-12T14:02:42.821Z,2.20
2023-02-12T14:05:30.786Z,1.92
2023-02-12T14:08:37.754Z,2.63
2023-02-12T14:11:25.980Z,2.10
2023-02-12T14:14:13.409Z,1.85
2023-02-12T14:17:20.508Z,2.53
2023-02-12T14:20:25.846Z,2.83
2023-02-12T14:23:33.929Z,2.80
2023-02-12T14:26:26.503Z,2.05
2023-02-12T14:29:21.277Z,1.80
2023-02-12T14:32:27.456Z,2.00
2023-02-12T14:35:33.065Z,2.10
2023-02-12T14:38:20.204Z,2.30
2023-02-12T14:41:38.016Z,1.90
2023-02-12T14:44:26.729Z,2.20
2023-02-12T14:47:14.837Z,2.10
2023-02-12T14:50:21.082Z,2.00
2023-02-12T14:55:54.015Z,2.40
2023-02-12T14:58:41.561Z,2.53
2023-02-12T15:01:34.689Z,2.55
2023-02-12T15:04:25.155Z,2.97
2023-02-12T15:07:13.848Z,2.72
2023-02-12T15:10:08.193Z,2.97
2023-02-12T15:13:13.063Z,2.90
2023-02-12T15:16:02.997Z,3.03
2023-02-12T15:18:57.176Z,3.28
2023-02-12T15:21:44.176Z,3.42
2023-02-12T15:24:31.524Z,4.15
2023-02-12T15:27:19.185Z,4.47
2023-02-12T15:30:12.430Z,4.25
2023-02-12T15:33:02.018Z,3.80
2023-02-12T15:35:48.760Z,3.40
2023-02-12T15:38:45.963Z,3.35
2023-02-12T15:41:35.249Z,3.80
2023-02-12T15:44:24.836Z,3.33
2023-02-12T15:47:11.441Z,3.55
2023-02-12T15:50:00.926Z,3.45
2023-02-12T15:53:18.210Z,3.60
2023-02-12T15:56:24.428Z,3.28
2023-02-12T15:59:18.313Z,3.33
2023-02-12T16:02:05.135Z,3.00
2023-02-12T16:04:51.924Z,3.10
2023-02-12T16:07:39.696Z,2.78
2023-02-12T16:10:32.587Z,2.85
2023-02-12T16:13:36.301Z,4.25
2023-02-12T16:16:26.098Z,3.55
2023-02-12T16:19:23.013Z,3.30
2023-02-12T16:22:11.618Z,2.88
2023-02-12T16:24:58.185Z,2.95
2023-02-12T16:28:05.175Z,2.88
2023-02-12T16:30:53.939Z,2.78
2023-02-12T16:33:40.361Z,2.40
2023-02-12T16:36:26.613Z,2.70
2023-02-12T16:39:33.005Z,2.60
2023-02-12T16:42:24.802Z,2.67
2023-02-12T16:45:32.865Z,2.78
2023-02-12T16:48:24.740Z,2.65
2023-02-12T16:51:26.459Z,2.40
2023-02-12T16:54:27.512Z,2.85
2023-02-12T16:57:14.055Z,2.58
2023-02-12T17:00:02.288Z,2.72
2023-02-12T17:03:08.582Z,2.30
2023-02-12T17:05:55.294Z,2.67
2023-02-12T17:08:41.931Z,2.70
2023-02-12T17:11:29.167Z,3.05
2023-02-12T17:14:16.839Z,3.05
2023-02-12T17:17:03.089Z,2.53
2023-02-12T17:19:50.943Z,2.60
2023-02-12T17:22:37.613Z,2.85
2023-02-12T17:25:24.817Z,3.10
2023-02-12T17:28:11.452Z,2.75
2023-02-12T17:30:58.483Z,3.17
2023-02-12T17:33:44.661Z,3.40
2023-02-12T17:36:31.455Z,3.30
2023-02-12T17:39:18.589Z,3.75
2023-02-12T17:42:06.726Z,3.70
2023-02-12T17:44:53.712Z,3.03
2023-02-12T17:47:40.220Z,3.53
2023-02-12T17:50:27.284Z,3.47
2023-02-12T17:53:13.670Z,3.60
2023-02-12T17:56:00.273Z,3.20
2023-02-12T17:58:47.426Z,3.10
2023-02-12T18:01:35.555Z,3.30
2023-02-12T18:04:21.980Z,3.50
2023-02-12T18:07:08.375Z,4.10
2023-02-12T18:09:55.261Z,3.85
2023-02-12T18:12:42.034Z,3.97
2023-02-12T18:15:28.529Z,4.20
2023-02-12T18:18:16.739Z,3.97
2023-02-12T18:21:08.379Z,3.90
2023-02-12T18:23:57.790Z,4.00
2023-02-12T18:26:44.021Z,4.40
2023-02-12T18:29:31.093Z,4.07
2023-02-12T18:32:17.822Z,5.43
2023-02-12T18:35:04.973Z,4.40
2023-02-12T18:37:51.277Z,4.90
2023-02-12T18:40:40.648Z,4.88
2023-02-12T18:43:28.181Z,4.68
2023-02-12T18:46:19.357Z,4.70
2023-02-12T18:49:07.032Z,4.90
2023-02-12T18:51:54.288Z,4.45
2023-02-12T18:54:41.342Z,4.97
2023-02-12T18:57:28.688Z,5.10
2023-02-12T19:00:15.965Z,5.03
2023-02-12T19:03:05.146Z,5.35
2023-02-12T19:05:52.861Z,6.07
2023-02-12T19:08:39.402Z,5.20
2023-02-12T19:11:26.833Z,4.97
2023-02-12T19:14:18.273Z,4.78
2023-02-12T19:17:05.768Z,5.13
2023-02-12T19:19:52.319Z,5.70
2023-02-12T19:22:42.952Z,5.90
2023-02-12T19:25:29.882Z,6.18
2023-02-12T19:28:16.120Z,5.22
2023-02-12T19:31:15.795Z,4.70
2023-02-12T19:34:09.566Z,5.35
2023-02-12T19:36:56.025Z,5.40
2023-02-12T19:39:42.979Z,5.22
2023-02-12T19:42:30.152Z,5.20
2023-02-12T19:45:26.699Z,6.07
2023-02-12T19:48:13.560Z,7.68
2023-02-12T19:51:00.836Z,6.47
2023-02-12T19:53:48.300Z,8.63
2023-02-12T19:56:36.334Z,8.10
2023-02-12T19:59:24.732Z,10.27
2023-02-12T20:02:12.005Z,8.80
2023-02-12T20:04:59.391Z,9.15
2023-02-12T20:07:49.273Z,10.45
2023-02-12T20:10:36.464Z,8.75
2023-02-12T20:13:23.291Z,7.22
2023-02-12T20:16:11.812Z,8.40
2023-02-12T20:19:01.442Z,8.13
2023-02-12T20:21:53.335Z,6.68
2023-02-12T20:24:42.849Z,7.57
2023-02-12T20:27:36.017Z,6.55
2023-02-12T20:30:22.846Z,6.32
2023-02-12T20:33:09.899Z,6.28
2023-02-12T20:35:57.394Z,7.13
2023-02-12T20:38:45.378Z,6.13
2023-02-12T20:41:38.811Z,6.35
2023-02-12T20:47:14.564Z,5.05
2023-02-12T20:50:01.654Z,4.72
2023-02-12T20:52:48.922Z,5.20
2023-02-12T20:55:35.672Z,5.00
2023-02-12T20:58:22.126Z,5.05
2023-02-12T21:01:10.217Z,4.30
2023-02-12T21:03:57.381Z,5.20
2023-02-12T21:06:45.181Z,4.80
2023-02-12T21:09:32.674Z,5.30
2023-02-12T21:12:19.612Z,4.80
2023-02-12T21:15:06.454Z,4.50
2023-02-12T21:17:53.654Z,3.80
2023-02-12T21:20:40.583Z,3.53
2023-02-12T21:23:30.217Z,4.00
2023-02-12T21:26:17.772Z,3.78
2023-02-12T21:29:04.561Z,4.47
2023-02-12T21:31:52.292Z,4.22
2023-02-12T21:34:38.638Z,4.05
2023-02-12T21:37:25.959Z,3.83
2023-02-12T21:40:12.840Z,3.58
2023-02-12T21:42:59.986Z,3.80
2023-02-12T21:45:51.613Z,3.72
2023-02-12T21:48:39.499Z,3.95
2023-02-12T21:51:27.227Z,3.40
2023-02-12T21:54:16.289Z,3.55
2023-02-12T21:57:02.786Z,3.38
2023-02-12T21:59:48.937Z,3.55
2023-02-12T22:02:35.047Z,3.42
2023-02-12T22:05:21.797Z,3.65
2023-02-12T22:08:08.139Z,3.25
2023-02-12T22:10:55.016Z,3.40
2023-02-12T22:13:41.447Z,3.80
2023-02-12T22:16:29.698Z,3.60
2023-02-12T22:19:18.332Z,3.80
2023-02-12T22:22:05.931Z,3.33
2023-02-12T22:24:53.476Z,3.63
2023-02-12T22:27:39.541Z,3.67
2023-02-12T22:30:25.744Z,3.50
2023-02-12T22:33:12.712Z,4.30
2023-02-12T22:36:04.254Z,3.80
2023-02-12T22:38:52.411Z,3.30
2023-02-12T22:41:38.818Z,3.47
2023-02-12T22:44:25.940Z,3.70
2023-02-12T22:47:12.349Z,3.45
2023-02-12T22:50:01.933Z,3.30
2023-02-12T22:52:48.111Z,3.35
2023-02-12T22:55:37.336Z,3.53
2023-02-12T22:58:24.307Z,3.38
2023-02-12T23:01:18.507Z,3.33
2023-02-12T23:04:05.408Z,2.90
2023-02-12T23:06:51.616Z,3.33
2023-02-12T23:09:37.909Z,3.72
2023-02-12T23:12:24.895Z,3.63
2023-02-12T23:15:11.648Z,3.80
2023-02-12T23:17:58.314Z,3.80
2023-02-12T23:20:44.630Z,3.60
2023-02-12T23:23:30.927Z,3.80
2023-02-12T23:26:17.041Z,4.28
2023-02-12T23:29:03.321Z,3.38
2023-02-12T23:31:49.423Z,4.00
2023-02-12T23:34:36.254Z,4.13
2023-02-12T23:37:23.695Z,4.22
2023-02-12T23:40:10.298Z,4.65
2023-02-12T23:42:57.048Z,4.40
2023-02-12T23:45:47.029Z,4.75
2023-02-12T23:48:34.025Z,4.38
2023-02-12T23:51:20.385Z,4.45
2023-02-12T23:54:07.167Z,4.80
2023-02-12T23:56:53.593Z,5.00
2023-02-12T23:59:39.702Z,4.57
